Current conditions...

naunga

New Member
I was thinking about working on my crosswind landings today. What do guys think?


KBKL 131353Z 28039G49KT 10SM SCT044 OVC055 03/M03 A2985 RMK AO2 PK WND 26050/1328 SLP112 T00331028
 

sorrygottarunway

Well-Known Member
hahah sounds fun we have it here too:

KBDR 131354Z 30023G38KT 10SM FEW110 11/M02 A2937 RMK AO2 PK WND 29038/1347 SLP945 T01111017
 

Tim

New Member
sounds like a good day to find out if the demostrated crosswind numbers are correct..
In KATL now is33021G28. Its been steady like that all day.
 

Bert

New Member
Put down full flaps and see if you can come down straight down like a helicopter...
 

stultus

New Member
Now's the perfect chance to go out and fly backwards! Take out a C152 and put it in slow flight...lots of fun!
 

I_Money

Moderator
Man the US has some junkie weather right now - it is 32C here in Melbourne, blue skies, the works!!
 

EatSleepFly

Well-Known Member
[ QUOTE ]
it is 32C here in Melbourne, blue skies, the works!!


[/ QUOTE ]

Geez...I don't think its even 32 Farenheit here in lovely Ohio!
 

flyguy

Well-Known Member
[ QUOTE ]
28039G49KT


[/ QUOTE ]
3 words, Ho Lee Shiznit!!!!! Um, yeah sure. Let's go flying!
 

IrishSheepdog

Sitting in the median
That's all the weather we had last week. Funny thing though, when it gets that windy we still usually fly. Windy days like that were "party days" back at school since nobody would fly, so we'd all go out and do something fun together. Now it's just a normal work day!


The winds really provide a unique challenge for all operations, even on the ground.
 
Top